»·PEaware :: N208GG KSNA-KSNA

N208GG :: KSNA-KSNA

FLIGHT INFORMATION

Flight Status: Arrived
Operator: Privately registered:
United States
More flights under this callsign
Pilot: Hunter M. (19355)
Aircraft: CESSNA 172 SKYHAWK
(C172)
More flights by this aircraft type
Origin: KSNA John Wayne-Orange Co
United States
Destination: KSNA John Wayne-Orange Co
United States
More flights between these airports :: More routes between these airports
Route: DIRECT
File this flight plan on PilotEdge
Remarks:
Altitude:
(Current/Filed)
3,000ft
Speed:
(Current/Filed)
118kts
Departed: 05-Dec-19 12:59 PM
Arrived: 05-Dec-19 01:21 PM
Distance/Time
Traveled:
0nm/0:22
Distance/Time
To Go:
Arrived

Flight Plot

Page will automatically refresh every two minutes.


Map Options




Map Legend


Flown Route
Filed Route
Departure Airport
Arrival Airport
Navaid (VOR, NDB)
Fix

Horizontal Profiles

Position Reports

Time Latitude Longitude Heading Altitude Ground
Speed
05-Dec-19 11:56 33.667452 -117.870765 37 59ft 0kts
05-Dec-19 11:57 33.667453 -117.870765 37 59ft 0kts
05-Dec-19 11:58 33.667453 -117.870765 37 59ft 0kts
05-Dec-19 11:59 33.667453 -117.870764 37 59ft 0kts
05-Dec-19 12:00 33.667454 -117.870764 37 59ft 0kts
05-Dec-19 12:01 33.667454 -117.870764 37 59ft 0kts
05-Dec-19 12:02 33.667454 -117.870764 37 59ft 0kts
05-Dec-19 12:03 33.667454 -117.870763 37 59ft 0kts
05-Dec-19 12:04 33.667455 -117.870763 37 59ft 0kts
05-Dec-19 12:05 33.667455 -117.870763 37 59ft 0kts
05-Dec-19 12:06 33.667455 -117.870762 37 59ft 0kts
05-Dec-19 12:07 33.667456 -117.870762 37 59ft 0kts
05-Dec-19 12:08 33.667456 -117.870762 37 59ft 0kts
05-Dec-19 12:09 33.667456 -117.870762 37 59ft 0kts
05-Dec-19 12:10 33.667456 -117.870762 37 59ft 0kts
05-Dec-19 12:11 33.667457 -117.870761 37 59ft 0kts
05-Dec-19 12:12 33.667457 -117.870761 37 59ft 0kts
05-Dec-19 12:13 33.667458 -117.870760 37 59ft 0kts
05-Dec-19 12:14 33.667458 -117.870760 37 59ft 0kts
05-Dec-19 12:15 33.667458 -117.870760 37 59ft 0kts
05-Dec-19 12:16 33.667459 -117.870759 37 59ft 0kts
05-Dec-19 12:17 33.667459 -117.870759 37 59ft 0kts
05-Dec-19 12:18 33.667460 -117.870759 37 59ft 0kts
05-Dec-19 12:19 33.667460 -117.870758 37 59ft 0kts
05-Dec-19 12:20 33.667460 -117.870758 37 59ft 0kts
05-Dec-19 12:21 33.667461 -117.870757 37 59ft 0kts
05-Dec-19 12:22 33.667461 -117.870757 37 59ft 0kts
05-Dec-19 12:23 33.667462 -117.870757 37 59ft 0kts
05-Dec-19 12:24 33.667462 -117.870756 37 59ft 0kts
05-Dec-19 12:25 33.667462 -117.870756 37 59ft 0kts
05-Dec-19 12:26 33.667463 -117.870756 37 59ft 0kts
05-Dec-19 12:27 33.667463 -117.870755 37 59ft 0kts
05-Dec-19 12:28 33.667464 -117.870755 37 59ft 0kts
05-Dec-19 12:29 33.667464 -117.870754 37 59ft 0kts
05-Dec-19 12:30 33.667465 -117.870754 37 59ft 0kts
05-Dec-19 12:31 33.667465 -117.870754 37 59ft 0kts
05-Dec-19 12:32 33.667465 -117.870753 37 59ft 0kts
05-Dec-19 12:33 33.667466 -117.870753 37 59ft 0kts
05-Dec-19 12:34 33.667466 -117.870752 37 59ft 0kts
05-Dec-19 12:35 33.667467 -117.870752 37 59ft 0kts
05-Dec-19 12:36 33.667467 -117.870752 37 59ft 0kts
05-Dec-19 12:37 33.667468 -117.870751 37 59ft 0kts
05-Dec-19 12:38 33.667468 -117.870751 37 59ft 0kts
05-Dec-19 12:39 33.667468 -117.870750 37 59ft 0kts
05-Dec-19 12:40 33.667469 -117.870750 37 59ft 0kts
05-Dec-19 12:41 33.667469 -117.870750 37 59ft 0kts
05-Dec-19 12:42 33.667470 -117.870749 37 59ft 0kts
05-Dec-19 12:43 33.667470 -117.870749 37 59ft 0kts
05-Dec-19 12:44 33.667471 -117.870748 37 59ft 0kts
05-Dec-19 12:45 33.667471 -117.870748 37 59ft 0kts
05-Dec-19 12:46 33.667471 -117.870748 37 59ft 0kts
05-Dec-19 12:47 33.667472 -117.870747 37 59ft 0kts
05-Dec-19 12:48 33.667472 -117.870747 37 59ft 0kts
05-Dec-19 12:49 33.667474 -117.870746 37 59ft 0kts
05-Dec-19 12:50 33.669689 -117.870423 38 59ft 23kts
05-Dec-19 12:51 33.672359 -117.868165 30 59ft 9kts
05-Dec-19 12:52 33.675355 -117.866265 22 59ft 16kts
05-Dec-19 12:53 33.678813 -117.864209 25 59ft 2kts
05-Dec-19 12:54 33.679639 -117.863852 338 59ft 0kts
05-Dec-19 12:55 33.679640 -117.863853 338 59ft 0kts
05-Dec-19 12:56 33.679640 -117.863853 338 59ft 0kts
05-Dec-19 12:57 33.679673 -117.864488 208 59ft 2kts
05-Dec-19 12:58 33.664769 -117.874452 211 510ft 83kts
05-Dec-19 12:59 33.655483 -117.892548 342 1324ft 84kts
05-Dec-19 13:00 33.678210 -117.901711 340 2073ft 87kts
05-Dec-19 13:01 33.703361 -117.912200 340 2427ft 110kts
05-Dec-19 13:02 33.731738 -117.920827 26 2822ft 97kts
05-Dec-19 13:03 33.755791 -117.909233 20 3448ft 93kts
05-Dec-19 13:04 33.782342 -117.897042 20 3502ft 106kts
05-Dec-19 13:05 33.810153 -117.884513 20 3500ft 106kts
05-Dec-19 13:06 33.837629 -117.871235 34 3502ft 106kts
05-Dec-19 13:07 33.861335 -117.849850 44 3497ft 106kts
05-Dec-19 13:08 33.862790 -117.816173 91 3490ft 97kts
05-Dec-19 13:09 33.862072 -117.784261 91 3499ft 95kts
05-Dec-19 13:10 33.860402 -117.752680 126 3490ft 95kts
05-Dec-19 13:11 33.840389 -117.766699 218 3506ft 95kts
05-Dec-19 13:12 33.817634 -117.782653 198 3224ft 95kts
05-Dec-19 13:13 33.794357 -117.791726 201 2450ft 77kts
05-Dec-19 13:14 33.775218 -117.803798 212 1813ft 77kts
05-Dec-19 13:15 33.757400 -117.817713 210 1670ft 75kts
05-Dec-19 13:16 33.738528 -117.828949 202 1416ft 76kts
05-Dec-19 13:17 33.719573 -117.841194 209 1245ft 84kts
05-Dec-19 13:18 33.700260 -117.853310 208 642ft 74kts
05-Dec-19 13:19 33.682320 -117.864668 206 115ft 72kts
05-Dec-19 13:20 33.675838 -117.869935 302 59ft 0kts

Navigation Log

Ident Type
Flight plan parsing failed, navigation log unavailable